sensor_id;sensor_type;location;lat;lon;timestamp;P1;durP1;ratioP1;P2;durP2;ratioP2
9809;SDS011;4944;52.514;13.192;2023-07-13T00:01:34;2.17;;;1.95;;
9809;SDS011;4944;52.514;13.192;2023-07-13T00:04:03;3.35;;;1.85;;
9809;SDS011;4944;52.514;13.192;2023-07-13T00:06:31;4.38;;;1.98;;
9809;SDS011;4944;52.514;13.192;2023-07-13T00:08:58;1.73;;;1.60;;
9809;SDS011;4944;52.514;13.192;2023-07-13T00:11:25;2.65;;;2.05;;
9809;SDS011;4944;52.514;13.192;2023-07-13T00:13:53;3.70;;;1.98;;
9809;SDS011;4944;52.514;13.192;2023-07-13T00:16:20;3.38;;;2.00;;
9809;SDS011;4944;52.514;13.192;2023-07-13T00:18:47;4.35;;;1.70;;
9809;SDS011;4944;52.514;13.192;2023-07-13T00:21:14;5.13;;;1.98;;
9809;SDS011;4944;52.514;13.192;2023-07-13T00:23:41;4.47;;;1.75;;
9809;SDS011;4944;52.514;13.192;2023-07-13T00:26:09;3.53;;;1.90;;
9809;SDS011;4944;52.514;13.192;2023-07-13T00:28:38;2.20;;;1.55;;
9809;SDS011;4944;52.514;13.192;2023-07-13T00:31:08;1.92;;;1.70;;
9809;SDS011;4944;52.514;13.192;2023-07-13T00:33:36;2.67;;;1.98;;
9809;SDS011;4944;52.514;13.192;2023-07-13T00:36:03;4.13;;;2.08;;
9809;SDS011;4944;52.514;13.192;2023-07-13T00:38:30;6.30;;;2.28;;
9809;SDS011;4944;52.514;13.192;2023-07-13T00:40:57;2.28;;;1.75;;
9809;SDS011;4944;52.514;13.192;2023-07-13T00:43:25;2.17;;;1.98;;
9809;SDS011;4944;52.514;13.192;2023-07-13T00:46:13;2.45;;;1.88;;
9809;SDS011;4944;52.514;13.192;2023-07-13T00:48:45;4.55;;;2.33;;
9809;SDS011;4944;52.514;13.192;2023-07-13T00:51:14;2.85;;;1.90;;
9809;SDS011;4944;52.514;13.192;2023-07-13T00:53:45;1.88;;;1.67;;
9809;SDS011;4944;52.514;13.192;2023-07-13T00:56:12;2.78;;;2.10;;
9809;SDS011;4944;52.514;13.192;2023-07-13T00:58:39;2.33;;;1.77;;
9809;SDS011;4944;52.514;13.192;2023-07-13T01:01:06;2.63;;;1.90;;
9809;SDS011;4944;52.514;13.192;2023-07-13T01:03:35;4.57;;;2.05;;
9809;SDS011;4944;52.514;13.192;2023-07-13T01:06:03;2.55;;;2.05;;
9809;SDS011;4944;52.514;13.192;2023-07-13T01:08:30;2.63;;;1.77;;
9809;SDS011;4944;52.514;13.192;2023-07-13T01:10:57;2.63;;;1.70;;
9809;SDS011;4944;52.514;13.192;2023-07-13T01:13:24;2.58;;;1.73;;
9809;SDS011;4944;52.514;13.192;2023-07-13T01:15:51;2.15;;;1.75;;
9809;SDS011;4944;52.514;13.192;2023-07-13T01:18:21;2.03;;;1.92;;
9809;SDS011;4944;52.514;13.192;2023-07-13T01:20:53;2.58;;;1.90;;
9809;SDS011;4944;52.514;13.192;2023-07-13T01:23:20;2.17;;;1.90;;
9809;SDS011;4944;52.514;13.192;2023-07-13T01:25:48;5.40;;;2.25;;
9809;SDS011;4944;52.514;13.192;2023-07-13T01:28:15;3.28;;;2.20;;
9809;SDS011;4944;52.514;13.192;2023-07-13T01:30:43;1.88;;;1.70;;
9809;SDS011;4944;52.514;13.192;2023-07-13T01:33:11;4.50;;;2.10;;
9809;SDS011;4944;52.514;13.192;2023-07-13T01:35:38;3.13;;;2.05;;
9809;SDS011;4944;52.514;13.192;2023-07-13T01:38:07;4.10;;;1.90;;
9809;SDS011;4944;52.514;13.192;2023-07-13T01:40:36;1.77;;;1.67;;
9809;SDS011;4944;52.514;13.192;2023-07-13T01:43:04;2.00;;;1.90;;
9809;SDS011;4944;52.514;13.192;2023-07-13T01:45:31;2.20;;;2.00;;
9809;SDS011;4944;52.514;13.192;2023-07-13T01:47:58;2.05;;;1.80;;
9809;SDS011;4944;52.514;13.192;2023-07-13T01:50:25;3.65;;;2.05;;
9809;SDS011;4944;52.514;13.192;2023-07-13T01:52:53;1.92;;;1.80;;
9809;SDS011;4944;52.514;13.192;2023-07-13T01:55:21;2.50;;;1.90;;
9809;SDS011;4944;52.514;13.192;2023-07-13T01:57:48;2.60;;;1.92;;
9809;SDS011;4944;52.514;13.192;2023-07-13T02:00:15;2.33;;;2.08;;
9809;SDS011;4944;52.514;13.192;2023-07-13T02:02:43;3.65;;;1.95;;
9809;SDS011;4944;52.514;13.192;2023-07-13T02:05:10;1.80;;;1.70;;
9809;SDS011;4944;52.514;13.192;2023-07-13T02:07:37;2.50;;;1.88;;
9809;SDS011;4944;52.514;13.192;2023-07-13T02:10:04;2.63;;;1.95;;
9809;SDS011;4944;52.514;13.192;2023-07-13T02:12:34;6.05;;;2.22;;
9809;SDS011;4944;52.514;13.192;2023-07-13T02:15:01;2.92;;;2.08;;
9809;SDS011;4944;52.514;13.192;2023-07-13T02:17:29;1.80;;;1.67;;
9809;SDS011;4944;52.514;13.192;2023-07-13T02:19:56;3.67;;;1.92;;
9809;SDS011;4944;52.514;13.192;2023-07-13T02:22:23;2.30;;;2.10;;
9809;SDS011;4944;52.514;13.192;2023-07-13T02:24:50;2.30;;;2.07;;
9809;SDS011;4944;52.514;13.192;2023-07-13T02:27:17;2.77;;;2.00;;
9809;SDS011;4944;52.514;13.192;2023-07-13T02:29:45;3.73;;;1.90;;
9809;SDS011;4944;52.514;13.192;2023-07-13T02:32:12;5.00;;;2.20;;
9809;SDS011;4944;52.514;13.192;2023-07-13T02:34:40;2.37;;;2.20;;
9809;SDS011;4944;52.514;13.192;2023-07-13T02:37:07;3.40;;;2.00;;
9809;SDS011;4944;52.514;13.192;2023-07-13T02:39:34;4.67;;;2.10;;
9809;SDS011;4944;52.514;13.192;2023-07-13T02:42:01;4.57;;;2.20;;
9809;SDS011;4944;52.514;13.192;2023-07-13T02:44:28;3.67;;;2.23;;
9809;SDS011;4944;52.514;13.192;2023-07-13T02:46:56;2.63;;;2.23;;
9809;SDS011;4944;52.514;13.192;2023-07-13T02:49:23;2.90;;;2.30;;
9809;SDS011;4944;52.514;13.192;2023-07-13T02:51:50;2.20;;;2.00;;
9809;SDS011;4944;52.514;13.192;2023-07-13T02:54:17;1.97;;;1.87;;
9809;SDS011;4944;52.514;13.192;2023-07-13T02:56:44;4.97;;;2.20;;
9809;SDS011;4944;52.514;13.192;2023-07-13T02:59:11;2.30;;;2.10;;
9809;SDS011;4944;52.514;13.192;2023-07-13T03:01:37;3.43;;;2.00;;
9809;SDS011;4944;52.514;13.192;2023-07-13T03:04:07;1.90;;;1.80;;
9809;SDS011;4944;52.514;13.192;2023-07-13T03:06:33;2.60;;;2.27;;
9809;SDS011;4944;52.514;13.192;2023-07-13T03:09:00;2.33;;;2.17;;
9809;SDS011;4944;52.514;13.192;2023-07-13T03:11:29;4.73;;;2.43;;
9809;SDS011;4944;52.514;13.192;2023-07-13T03:13:56;4.13;;;2.23;;
9809;SDS011;4944;52.514;13.192;2023-07-13T03:16:23;2.97;;;2.30;;
9809;SDS011;4944;52.514;13.192;2023-07-13T03:18:50;2.60;;;2.37;;
9809;SDS011;4944;52.514;13.192;2023-07-13T03:21:19;2.20;;;2.00;;
9809;SDS011;4944;52.514;13.192;2023-07-13T03:23:46;3.57;;;2.10;;
9809;SDS011;4944;52.514;13.192;2023-07-13T03:26:13;2.20;;;1.93;;
9809;SDS011;4944;52.514;13.192;2023-07-13T03:28:43;2.23;;;2.00;;
9809;SDS011;4944;52.514;13.192;2023-07-13T03:31:11;2.63;;;2.43;;
9809;SDS011;4944;52.514;13.192;2023-07-13T03:33:40;3.03;;;2.30;;
9809;SDS011;4944;52.514;13.192;2023-07-13T03:36:10;4.47;;;2.30;;
9809;SDS011;4944;52.514;13.192;2023-07-13T03:38:40;2.97;;;2.53;;
9809;SDS011;4944;52.514;13.192;2023-07-13T03:41:06;5.20;;;2.53;;
9809;SDS011;4944;52.514;13.192;2023-07-13T03:43:33;5.43;;;2.30;;
9809;SDS011;4944;52.514;13.192;2023-07-13T03:46:00;2.40;;;2.20;;
9809;SDS011;4944;52.514;13.192;2023-07-13T03:48:27;5.83;;;2.20;;
9809;SDS011;4944;52.514;13.192;2023-07-13T03:50:54;2.30;;;2.17;;
9809;SDS011;4944;52.514;13.192;2023-07-13T03:53:21;3.80;;;2.40;;
9809;SDS011;4944;52.514;13.192;2023-07-13T03:55:49;2.30;;;2.10;;
9809;SDS011;4944;52.514;13.192;2023-07-13T03:58:23;2.47;;;2.20;;
9809;SDS011;4944;52.514;13.192;2023-07-13T04:00:56;2.70;;;2.50;;
9809;SDS011;4944;52.514;13.192;2023-07-13T04:03:23;2.93;;;2.20;;
9809;SDS011;4944;52.514;13.192;2023-07-13T04:05:53;3.70;;;2.40;;
9809;SDS011;4944;52.514;13.192;2023-07-13T04:08:20;2.70;;;2.50;;
9809;SDS011;4944;52.514;13.192;2023-07-13T04:10:47;2.57;;;2.37;;
9809;SDS011;4944;52.514;13.192;2023-07-13T04:13:15;3.83;;;2.57;;
9809;SDS011;4944;52.514;13.192;2023-07-13T04:15:42;2.53;;;2.30;;
9809;SDS011;4944;52.514;13.192;2023-07-13T04:18:09;2.47;;;2.27;;
9809;SDS011;4944;52.514;13.192;2023-07-13T04:20:36;5.40;;;2.30;;
9809;SDS011;4944;52.514;13.192;2023-07-13T04:23:03;2.33;;;2.13;;
9809;SDS011;4944;52.514;13.192;2023-07-13T04:25:30;2.60;;;2.40;;
9809;SDS011;4944;52.514;13.192;2023-07-13T04:27:57;2.50;;;2.30;;
9809;SDS011;4944;52.514;13.192;2023-07-13T04:30:25;2.93;;;2.60;;
9809;SDS011;4944;52.514;13.192;2023-07-13T04:32:52;3.50;;;2.30;;
9809;SDS011;4944;52.514;13.192;2023-07-13T04:35:19;2.80;;;2.50;;
9809;SDS011;4944;52.514;13.192;2023-07-13T04:37:47;4.03;;;2.80;;
9809;SDS011;4944;52.514;13.192;2023-07-13T04:40:15;3.00;;;2.70;;
9809;SDS011;4944;52.514;13.192;2023-07-13T04:42:42;5.70;;;2.60;;
9809;SDS011;4944;52.514;13.192;2023-07-13T04:45:09;3.53;;;2.20;;
9809;SDS011;4944;52.514;13.192;2023-07-13T04:47:38;6.57;;;2.60;;
9809;SDS011;4944;52.514;13.192;2023-07-13T04:50:05;2.97;;;2.40;;
9809;SDS011;4944;52.514;13.192;2023-07-13T04:52:34;5.47;;;2.40;;
9809;SDS011;4944;52.514;13.192;2023-07-13T04:55:00;3.57;;;2.40;;
9809;SDS011;4944;52.514;13.192;2023-07-13T04:57:27;2.47;;;2.10;;
9809;SDS011;4944;52.514;13.192;2023-07-13T04:59:54;4.47;;;2.80;;
9809;SDS011;4944;52.514;13.192;2023-07-13T05:02:21;4.47;;;2.47;;
9809;SDS011;4944;52.514;13.192;2023-07-13T05:04:49;6.50;;;3.00;;
9809;SDS011;4944;52.514;13.192;2023-07-13T05:07:16;4.30;;;2.60;;
9809;SDS011;4944;52.514;13.192;2023-07-13T05:09:43;2.83;;;2.63;;
9809;SDS011;4944;52.514;13.192;2023-07-13T05:12:10;4.07;;;2.43;;
9809;SDS011;4944;52.514;13.192;2023-07-13T05:14:37;3.63;;;2.43;;
9809;SDS011;4944;52.514;13.192;2023-07-13T05:17:04;3.10;;;2.80;;
9809;SDS011;4944;52.514;13.192;2023-07-13T05:19:31;5.07;;;2.87;;
9809;SDS011;4944;52.514;13.192;2023-07-13T05:21:59;5.23;;;2.87;;
9809;SDS011;4944;52.514;13.192;2023-07-13T05:24:27;5.00;;;2.60;;
9809;SDS011;4944;52.514;13.192;2023-07-13T05:26:54;2.60;;;2.40;;
9809;SDS011;4944;52.514;13.192;2023-07-13T05:29:22;3.40;;;2.70;;
9809;SDS011;4944;52.514;13.192;2023-07-13T05:31:49;3.07;;;2.80;;
9809;SDS011;4944;52.514;13.192;2023-07-13T05:34:16;5.73;;;2.80;;
9809;SDS011;4944;52.514;13.192;2023-07-13T05:36:43;3.47;;;3.17;;
9809;SDS011;4944;52.514;13.192;2023-07-13T05:39:11;2.73;;;2.33;;
9809;SDS011;4944;52.514;13.192;2023-07-13T05:41:39;3.97;;;2.47;;
9809;SDS011;4944;52.514;13.192;2023-07-13T05:44:06;4.40;;;2.20;;
9809;SDS011;4944;52.514;13.192;2023-07-13T05:46:33;2.87;;;2.60;;
9809;SDS011;4944;52.514;13.192;2023-07-13T05:48:59;3.23;;;2.00;;
9809;SDS011;4944;52.514;13.192;2023-07-13T05:51:26;5.40;;;2.53;;
9809;SDS011;4944;52.514;13.192;2023-07-13T05:53:53;3.30;;;2.73;;
9809;SDS011;4944;52.514;13.192;2023-07-13T05:56:21;4.40;;;2.70;;
9809;SDS011;4944;52.514;13.192;2023-07-13T05:58:49;3.77;;;2.10;;
9809;SDS011;4944;52.514;13.192;2023-07-13T06:01:16;5.13;;;2.10;;
9809;SDS011;4944;52.514;13.192;2023-07-13T06:03:44;4.37;;;1.97;;
9809;SDS011;4944;52.514;13.192;2023-07-13T06:06:10;2.67;;;2.23;;
9809;SDS011;4944;52.514;13.192;2023-07-13T06:08:37;2.00;;;1.80;;
9809;SDS011;4944;52.514;13.192;2023-07-13T06:11:05;3.03;;;2.10;;
9809;SDS011;4944;52.514;13.192;2023-07-13T06:13:34;2.50;;;2.30;;
9809;SDS011;4944;52.514;13.192;2023-07-13T06:16:02;6.47;;;2.20;;
9809;SDS011;4944;52.514;13.192;2023-07-13T06:18:30;2.20;;;2.00;;
9809;SDS011;4944;52.514;13.192;2023-07-13T06:20:57;2.83;;;1.90;;
9809;SDS011;4944;52.514;13.192;2023-07-13T06:23:24;4.83;;;2.30;;
9809;SDS011;4944;52.514;13.192;2023-07-13T06:25:52;3.00;;;2.43;;
9809;SDS011;4944;52.514;13.192;2023-07-13T06:28:18;3.23;;;2.13;;
9809;SDS011;4944;52.514;13.192;2023-07-13T06:30:47;4.40;;;2.53;;
9809;SDS011;4944;52.514;13.192;2023-07-13T06:33:13;2.37;;;2.00;;
9809;SDS011;4944;52.514;13.192;2023-07-13T06:35:40;2.33;;;2.13;;
9809;SDS011;4944;52.514;13.192;2023-07-13T06:38:07;2.30;;;2.10;;
9809;SDS011;4944;52.514;13.192;2023-07-13T06:40:34;3.33;;;2.40;;
9809;SDS011;4944;52.514;13.192;2023-07-13T06:43:01;2.17;;;1.87;;
9809;SDS011;4944;52.514;13.192;2023-07-13T06:45:28;5.33;;;1.90;;
9809;SDS011;4944;52.514;13.192;2023-07-13T06:47:56;4.20;;;2.40;;
9809;SDS011;4944;52.514;13.192;2023-07-13T06:50:23;3.93;;;2.23;;
9809;SDS011;4944;52.514;13.192;2023-07-13T06:52:50;2.30;;;2.00;;
9809;SDS011;4944;52.514;13.192;2023-07-13T06:55:17;2.73;;;2.00;;
9809;SDS011;4944;52.514;13.192;2023-07-13T06:57:44;6.83;;;2.10;;
9809;SDS011;4944;52.514;13.192;2023-07-13T07:00:12;4.77;;;1.90;;
9809;SDS011;4944;52.514;13.192;2023-07-13T07:02:39;4.07;;;2.30;;
9809;SDS011;4944;52.514;13.192;2023-07-13T07:05:07;4.43;;;2.13;;
9809;SDS011;4944;52.514;13.192;2023-07-13T07:07:34;5.27;;;2.10;;
9809;SDS011;4944;52.514;13.192;2023-07-13T07:10:02;4.03;;;1.77;;
9809;SDS011;4944;52.514;13.192;2023-07-13T07:12:29;4.17;;;2.17;;
9809;SDS011;4944;52.514;13.192;2023-07-13T07:14:56;3.60;;;1.80;;
9809;SDS011;4944;52.514;13.192;2023-07-13T07:17:23;3.43;;;1.83;;
9809;SDS011;4944;52.514;13.192;2023-07-13T07:19:51;1.75;;;1.63;;
9809;SDS011;4944;52.514;13.192;2023-07-13T07:22:20;4.27;;;1.87;;
9809;SDS011;4944;52.514;13.192;2023-07-13T07:24:47;1.80;;;1.40;;
9809;SDS011;4944;52.514;13.192;2023-07-13T07:27:14;1.60;;;1.50;;
9809;SDS011;4944;52.514;13.192;2023-07-13T07:29:41;2.30;;;1.80;;
9809;SDS011;4944;52.514;13.192;2023-07-13T07:32:08;1.77;;;1.63;;
9809;SDS011;4944;52.514;13.192;2023-07-13T07:34:35;4.10;;;2.00;;
9809;SDS011;4944;52.514;13.192;2023-07-13T07:37:01;1.83;;;1.60;;
9809;SDS011;4944;52.514;13.192;2023-07-13T07:39:30;2.35;;;1.75;;
9809;SDS011;4944;52.514;13.192;2023-07-13T07:41:58;4.37;;;1.60;;
9809;SDS011;4944;52.514;13.192;2023-07-13T07:44:25;2.88;;;2.15;;
9809;SDS011;4944;52.514;13.192;2023-07-13T07:46:53;5.20;;;1.90;;
9809;SDS011;4944;52.514;13.192;2023-07-13T07:49:20;3.80;;;2.13;;
9809;SDS011;4944;52.514;13.192;2023-07-13T07:51:47;4.60;;;2.70;;
9809;SDS011;4944;52.514;13.192;2023-07-13T07:54:14;2.47;;;2.28;;
9809;SDS011;4944;52.514;13.192;2023-07-13T07:56:42;2.28;;;1.98;;
9809;SDS011;4944;52.514;13.192;2023-07-13T07:59:09;3.03;;;1.52;;
9809;SDS011;4944;52.514;13.192;2023-07-13T08:01:36;2.92;;;1.45;;
9809;SDS011;4944;52.514;13.192;2023-07-13T08:04:03;3.47;;;1.20;;
9809;SDS011;4944;52.514;13.192;2023-07-13T08:06:31;2.60;;;1.17;;
9809;SDS011;4944;52.514;13.192;2023-07-13T08:08:58;1.48;;;1.00;;
9809;SDS011;4944;52.514;13.192;2023-07-13T08:11:26;1.20;;;1.05;;
9809;SDS011;4944;52.514;13.192;2023-07-13T08:13:55;2.08;;;1.10;;
9809;SDS011;4944;52.514;13.192;2023-07-13T08:16:22;1.02;;;0.98;;
9809;SDS011;4944;52.514;13.192;2023-07-13T08:18:49;2.40;;;1.40;;
9809;SDS011;4944;52.514;13.192;2023-07-13T08:21:16;2.20;;;1.10;;
9809;SDS011;4944;52.514;13.192;2023-07-13T08:23:45;1.20;;;1.10;;
9809;SDS011;4944;52.514;13.192;2023-07-13T08:26:12;2.15;;;1.17;;
9809;SDS011;4944;52.514;13.192;2023-07-13T08:28:39;1.20;;;1.13;;
9809;SDS011;4944;52.514;13.192;2023-07-13T08:31:08;1.00;;;1.00;;
9809;SDS011;4944;52.514;13.192;2023-07-13T08:33:36;2.72;;;1.10;;
9809;SDS011;4944;52.514;13.192;2023-07-13T08:36:06;3.67;;;1.50;;
9809;SDS011;4944;52.514;13.192;2023-07-13T08:38:33;3.08;;;1.10;;
9809;SDS011;4944;52.514;13.192;2023-07-13T08:41:00;1.13;;;1.02;;
9809;SDS011;4944;52.514;13.192;2023-07-13T08:43:36;2.22;;;1.27;;
9809;SDS011;4944;52.514;13.192;2023-07-13T08:46:05;2.65;;;1.20;;
9809;SDS011;4944;52.514;13.192;2023-07-13T08:48:39;5.03;;;1.35;;
9809;SDS011;4944;52.514;13.192;2023-07-13T08:51:11;3.72;;;1.48;;
9809;SDS011;4944;52.514;13.192;2023-07-13T08:53:49;1.67;;;1.33;;
9809;SDS011;4944;52.514;13.192;2023-07-13T08:56:19;1.48;;;1.38;;
9809;SDS011;4944;52.514;13.192;2023-07-13T08:58:50;4.95;;;1.60;;
9809;SDS011;4944;52.514;13.192;2023-07-13T09:01:23;1.83;;;1.23;;
9809;SDS011;4944;52.514;13.192;2023-07-13T09:03:57;2.97;;;1.77;;
9809;SDS011;4944;52.514;13.192;2023-07-13T09:06:31;1.13;;;1.02;;
9809;SDS011;4944;52.514;13.192;2023-07-13T09:09:09;2.60;;;1.35;;
9809;SDS011;4944;52.514;13.192;2023-07-13T09:11:47;2.13;;;1.35;;
9809;SDS011;4944;52.514;13.192;2023-07-13T09:14:26;1.55;;;1.40;;
9809;SDS011;4944;52.514;13.192;2023-07-13T09:17:03;4.85;;;2.03;;
9809;SDS011;4944;52.514;13.192;2023-07-13T09:19:34;5.43;;;2.20;;
9809;SDS011;4944;52.514;13.192;2023-07-13T09:22:02;2.47;;;1.70;;
9809;SDS011;4944;52.514;13.192;2023-07-13T09:24:36;2.67;;;2.08;;
9809;SDS011;4944;52.514;13.192;2023-07-13T09:27:09;3.15;;;2.10;;
9809;SDS011;4944;52.514;13.192;2023-07-13T09:29:44;1.92;;;1.70;;
9809;SDS011;4944;52.514;13.192;2023-07-13T09:32:17;5.47;;;2.05;;
9809;SDS011;4944;52.514;13.192;2023-07-13T09:34:49;2.35;;;2.15;;
9809;SDS011;4944;52.514;13.192;2023-07-13T09:37:17;4.40;;;2.20;;
9809;SDS011;4944;52.514;13.192;2023-07-13T09:39:47;2.63;;;2.17;;
9809;SDS011;4944;52.514;13.192;2023-07-13T09:42:18;3.95;;;2.40;;
9809;SDS011;4944;52.514;13.192;2023-07-13T09:44:51;6.05;;;2.40;;
9809;SDS011;4944;52.514;13.192;2023-07-13T09:47:22;3.60;;;2.50;;
9809;SDS011;4944;52.514;13.192;2023-07-13T09:49:55;6.88;;;2.40;;
9809;SDS011;4944;52.514;13.192;2023-07-13T09:52:23;3.08;;;2.45;;
9809;SDS011;4944;52.514;13.192;2023-07-13T09:54:51;2.33;;;2.08;;
9809;SDS011;4944;52.514;13.192;2023-07-13T09:57:24;2.67;;;2.10;;
9809;SDS011;4944;52.514;13.192;2023-07-13T09:59:53;6.15;;;2.40;;
9809;SDS011;4944;52.514;13.192;2023-07-13T10:02:26;3.72;;;2.30;;
9809;SDS011;4944;52.514;13.192;2023-07-13T10:04:55;4.20;;;2.22;;
9809;SDS011;4944;52.514;13.192;2023-07-13T10:07:24;3.08;;;2.20;;
9809;SDS011;4944;52.514;13.192;2023-07-13T10:09:51;3.75;;;2.40;;
9809;SDS011;4944;52.514;13.192;2023-07-13T10:12:19;3.03;;;2.10;;
9809;SDS011;4944;52.514;13.192;2023-07-13T10:14:50;3.30;;;2.03;;
9809;SDS011;4944;52.514;13.192;2023-07-13T10:17:26;2.85;;;2.20;;
9809;SDS011;4944;52.514;13.192;2023-07-13T10:19:57;3.10;;;2.17;;
9809;SDS011;4944;52.514;13.192;2023-07-13T10:22:29;4.05;;;2.22;;
9809;SDS011;4944;52.514;13.192;2023-07-13T10:25:07;3.90;;;2.30;;
9809;SDS011;4944;52.514;13.192;2023-07-13T10:27:43;12.50;;;2.60;;
9809;SDS011;4944;52.514;13.192;2023-07-13T10:30:12;3.97;;;2.00;;
9809;SDS011;4944;52.514;13.192;2023-07-13T10:32:44;5.07;;;2.05;;
9809;SDS011;4944;52.514;13.192;2023-07-13T10:35:12;3.65;;;2.28;;
9809;SDS011;4944;52.514;13.192;2023-07-13T10:37:43;3.88;;;2.25;;
9809;SDS011;4944;52.514;13.192;2023-07-13T10:40:14;2.53;;;2.33;;
9809;SDS011;4944;52.514;13.192;2023-07-13T10:42:46;2.40;;;2.20;;
9809;SDS011;4944;52.514;13.192;2023-07-13T10:45:16;4.57;;;2.10;;
9809;SDS011;4944;52.514;13.192;2023-07-13T10:47:46;3.08;;;2.35;;
9809;SDS011;4944;52.514;13.192;2023-07-13T10:50:15;4.70;;;2.30;;
9809;SDS011;4944;52.514;13.192;2023-07-13T10:52:46;3.63;;;2.10;;
9809;SDS011;4944;52.514;13.192;2023-07-13T10:55:34;3.13;;;2.30;;
9809;SDS011;4944;52.514;13.192;2023-07-13T10:58:18;3.28;;;2.17;;
9809;SDS011;4944;52.514;13.192;2023-07-13T11:00:47;2.97;;;2.10;;
9809;SDS011;4944;52.514;13.192;2023-07-13T11:03:19;4.22;;;2.33;;
9809;SDS011;4944;52.514;13.192;2023-07-13T11:05:49;2.95;;;1.77;;
9809;SDS011;4944;52.514;13.192;2023-07-13T11:08:19;6.93;;;2.30;;
9809;SDS011;4944;52.514;13.192;2023-07-13T11:10:57;2.97;;;2.22;;
9809;SDS011;4944;52.514;13.192;2023-07-13T11:22:15;1.70;;;1.60;;
9809;SDS011;4944;52.514;13.192;2023-07-13T11:24:48;1.70;;;1.60;;
9809;SDS011;4944;52.514;13.192;2023-07-13T11:27:40;2.28;;;1.75;;
9809;SDS011;4944;52.514;13.192;2023-07-13T11:30:18;2.20;;;1.80;;
9809;SDS011;4944;52.514;13.192;2023-07-13T11:32:50;3.85;;;2.00;;
9809;SDS011;4944;52.514;13.192;2023-07-13T11:35:32;1.70;;;1.60;;
9809;SDS011;4944;52.514;13.192;2023-07-13T11:38:03;5.43;;;2.20;;
9809;SDS011;4944;52.514;13.192;2023-07-13T11:40:39;4.50;;;2.00;;
9809;SDS011;4944;52.514;13.192;2023-07-13T11:43:11;3.53;;;2.13;;
9809;SDS011;4944;52.514;13.192;2023-07-13T11:45:40;2.60;;;1.85;;
9809;SDS011;4944;52.514;13.192;2023-07-13T11:48:17;4.35;;;2.30;;
9809;SDS011;4944;52.514;13.192;2023-07-13T11:50:50;3.60;;;2.10;;
9809;SDS011;4944;52.514;13.192;2023-07-13T11:53:21;3.78;;;2.10;;
9809;SDS011;4944;52.514;13.192;2023-07-13T11:55:51;4.00;;;1.83;;
9809;SDS011;4944;52.514;13.192;2023-07-13T11:58:21;3.25;;;2.17;;
9809;SDS011;4944;52.514;13.192;2023-07-13T12:00:50;2.53;;;1.98;;
9809;SDS011;4944;52.514;13.192;2023-07-13T12:03:20;4.53;;;2.25;;
9809;SDS011;4944;52.514;13.192;2023-07-13T12:05:57;3.47;;;2.00;;
9809;SDS011;4944;52.514;13.192;2023-07-13T12:08:26;1.83;;;1.70;;
9809;SDS011;4944;52.514;13.192;2023-07-13T12:10:57;5.35;;;1.73;;
9809;SDS011;4944;52.514;13.192;2023-07-13T12:13:34;2.55;;;1.90;;
9809;SDS011;4944;52.514;13.192;2023-07-13T12:16:07;4.90;;;1.83;;
9809;SDS011;4944;52.514;13.192;2023-07-13T12:18:40;2.28;;;1.70;;
9809;SDS011;4944;52.514;13.192;2023-07-13T12:21:13;3.53;;;1.65;;
9809;SDS011;4944;52.514;13.192;2023-07-13T12:23:44;1.83;;;1.67;;
9809;SDS011;4944;52.514;13.192;2023-07-13T12:26:14;2.28;;;1.30;;
9809;SDS011;4944;52.514;13.192;2023-07-13T12:28:45;3.97;;;1.58;;
9809;SDS011;4944;52.514;13.192;2023-07-13T12:31:23;4.28;;;1.73;;
9809;SDS011;4944;52.514;13.192;2023-07-13T12:33:56;2.05;;;1.70;;
9809;SDS011;4944;52.514;13.192;2023-07-13T12:36:25;2.42;;;1.48;;
9809;SDS011;4944;52.514;13.192;2023-07-13T12:38:56;2.67;;;1.50;;
9809;SDS011;4944;52.514;13.192;2023-07-13T12:41:28;1.50;;;1.40;;
9809;SDS011;4944;52.514;13.192;2023-07-13T12:43:55;4.18;;;1.50;;
9809;SDS011;4944;52.514;13.192;2023-07-13T12:46:23;2.33;;;1.55;;
9809;SDS011;4944;52.514;13.192;2023-07-13T12:48:54;3.58;;;1.50;;
9809;SDS011;4944;52.514;13.192;2023-07-13T12:51:24;3.22;;;1.48;;
9809;SDS011;4944;52.514;13.192;2023-07-13T12:53:57;3.65;;;1.42;;
9809;SDS011;4944;52.514;13.192;2023-07-13T12:56:32;4.65;;;1.77;;
9809;SDS011;4944;52.514;13.192;2023-07-13T12:59:01;3.08;;;1.58;;
9809;SDS011;4944;52.514;13.192;2023-07-13T13:01:31;2.28;;;1.75;;
9809;SDS011;4944;52.514;13.192;2023-07-13T13:04:02;1.92;;;1.52;;
9809;SDS011;4944;52.514;13.192;2023-07-13T13:06:33;3.40;;;1.48;;
9809;SDS011;4944;52.514;13.192;2023-07-13T13:09:01;3.35;;;1.33;;
9809;SDS011;4944;52.514;13.192;2023-07-13T13:11:29;2.88;;;1.48;;
9809;SDS011;4944;52.514;13.192;2023-07-13T13:13:57;5.00;;;1.80;;
9809;SDS011;4944;52.514;13.192;2023-07-13T13:16:30;4.63;;;1.67;;
9809;SDS011;4944;52.514;13.192;2023-07-13T13:19:00;1.90;;;1.30;;
9809;SDS011;4944;52.514;13.192;2023-07-13T13:21:39;4.13;;;1.45;;
9809;SDS011;4944;52.514;13.192;2023-07-13T13:24:09;3.78;;;1.88;;
9809;SDS011;4944;52.514;13.192;2023-07-13T13:26:37;1.83;;;1.40;;
9809;SDS011;4944;52.514;13.192;2023-07-13T13:29:09;2.25;;;1.70;;
9809;SDS011;4944;52.514;13.192;2023-07-13T13:31:40;2.75;;;1.38;;
9809;SDS011;4944;52.514;13.192;2023-07-13T13:34:08;1.20;;;1.10;;
9809;SDS011;4944;52.514;13.192;2023-07-13T13:36:36;3.45;;;1.40;;
9809;SDS011;4944;52.514;13.192;2023-07-13T13:39:08;2.70;;;1.40;;
9809;SDS011;4944;52.514;13.192;2023-07-13T13:41:44;2.47;;;1.50;;
9809;SDS011;4944;52.514;13.192;2023-07-13T13:44:12;1.67;;;1.25;;
9809;SDS011;4944;52.514;13.192;2023-07-13T13:46:41;2.28;;;1.25;;
9809;SDS011;4944;52.514;13.192;2023-07-13T13:49:10;2.08;;;1.40;;
9809;SDS011;4944;52.514;13.192;2023-07-13T13:51:43;2.67;;;1.55;;
9809;SDS011;4944;52.514;13.192;2023-07-13T13:54:11;2.70;;;1.45;;
9809;SDS011;4944;52.514;13.192;2023-07-13T13:56:41;4.82;;;1.75;;
9809;SDS011;4944;52.514;13.192;2023-07-13T13:59:08;9.13;;;1.63;;
9809;SDS011;4944;52.514;13.192;2023-07-13T14:01:35;2.70;;;1.55;;
9809;SDS011;4944;52.514;13.192;2023-07-13T14:04:04;2.13;;;1.42;;
9809;SDS011;4944;52.514;13.192;2023-07-13T14:06:32;3.15;;;1.70;;
9809;SDS011;4944;52.514;13.192;2023-07-13T14:09:01;3.03;;;1.60;;
9809;SDS011;4944;52.514;13.192;2023-07-13T14:11:29;1.88;;;1.40;;
9809;SDS011;4944;52.514;13.192;2023-07-13T14:13:57;3.00;;;1.70;;
9809;SDS011;4944;52.514;13.192;2023-07-13T14:16:29;5.20;;;1.40;;
9809;SDS011;4944;52.514;13.192;2023-07-13T14:18:57;2.58;;;1.63;;
9809;SDS011;4944;52.514;13.192;2023-07-13T14:21:26;2.83;;;1.52;;
9809;SDS011;4944;52.514;13.192;2023-07-13T14:23:54;2.30;;;1.20;;
9809;SDS011;4944;52.514;13.192;2023-07-13T14:26:22;1.63;;;1.08;;
9809;SDS011;4944;52.514;13.192;2023-07-13T14:28:52;3.70;;;1.10;;
9809;SDS011;4944;52.514;13.192;2023-07-13T14:31:20;3.50;;;1.60;;
9809;SDS011;4944;52.514;13.192;2023-07-13T14:33:48;1.83;;;1.20;;
9809;SDS011;4944;52.514;13.192;2023-07-13T14:36:20;1.58;;;1.48;;
9809;SDS011;4944;52.514;13.192;2023-07-13T14:38:53;1.40;;;1.27;;
9809;SDS011;4944;52.514;13.192;2023-07-13T14:41:21;1.20;;;1.20;;
9809;SDS011;4944;52.514;13.192;2023-07-13T14:43:48;1.27;;;1.00;;
9809;SDS011;4944;52.514;13.192;2023-07-13T14:46:21;1.05;;;1.02;;
9809;SDS011;4944;52.514;13.192;2023-07-13T14:48:57;3.38;;;1.17;;
9809;SDS011;4944;52.514;13.192;2023-07-13T14:51:27;2.25;;;1.10;;
9809;SDS011;4944;52.514;13.192;2023-07-13T14:53:54;1.75;;;1.15;;
9809;SDS011;4944;52.514;13.192;2023-07-13T14:56:23;1.45;;;1.00;;
9809;SDS011;4944;52.514;13.192;2023-07-13T14:58:51;2.50;;;1.33;;
9809;SDS011;4944;52.514;13.192;2023-07-13T15:01:18;3.28;;;1.30;;
9809;SDS011;4944;52.514;13.192;2023-07-13T15:03:47;2.22;;;1.10;;
9809;SDS011;4944;52.514;13.192;2023-07-13T15:06:15;2.88;;;1.30;;
9809;SDS011;4944;52.514;13.192;2023-07-13T15:08:44;1.95;;;1.23;;
9809;SDS011;4944;52.514;13.192;2023-07-13T15:11:13;1.88;;;1.25;;
9809;SDS011;4944;52.514;13.192;2023-07-13T15:13:43;3.50;;;1.30;;
9809;SDS011;4944;52.514;13.192;2023-07-13T15:16:13;1.17;;;1.05;;
9809;SDS011;4944;52.514;13.192;2023-07-13T15:18:43;2.90;;;1.20;;
9809;SDS011;4944;52.514;13.192;2023-07-13T15:21:11;2.42;;;0.95;;